Time;durP1;ratioP1;P1;durP2;ratioP2;P2;SDS_P1;SDS_P2;PMS_P1;PMS_P2;Temp;Humidity;BMP_temperature;BMP_pressure;BME280_temperature;BME280_humidity;BME280_pressure;Samples;Min_cycle;Max_cycle;Signal;HPM_P1;HPM_P2
2023/03/07 00:00:44;;;;;;;456.23;439.27;;;3.90;99.90;;;;;;6163808;23;20485;-83
2023/03/07 00:03:13;;;;;;;464.67;447.27;;;3.90;99.90;;;;;;6164398;23;20445;-83
2023/03/07 00:05:44;;;;;;;461.53;445.03;;;3.90;99.90;;;;;;6163907;23;20442;-83
2023/03/07 00:08:15;;;;;;;484.87;465.97;;;4.00;99.90;;;;;;6163765;23;21034;-83
2023/03/07 00:10:42;;;;;;;420.17;405.40;;;3.90;99.90;;;;;;6163649;23;20410;-84
2023/03/07 00:13:09;;;;;;;338.17;326.80;;;3.90;99.90;;;;;;6163952;23;20961;-83
2023/03/07 00:15:40;;;;;;;430.70;415.20;;;3.90;99.90;;;;;;6163827;23;20468;-83
2023/03/07 07:16:13;;;;;;;591.80;559.60;;;4.70;99.90;;;;;;6152900;23;20442;-82
2023/03/07 07:18:40;;;;;;;594.70;563.87;;;4.50;99.90;;;;;;6164480;23;20414;-81
2023/03/07 07:21:11;;;;;;;575.17;546.50;;;4.70;99.90;;;;;;6163884;23;20420;-82
2023/03/07 07:23:44;;;;;;;549.90;523.93;;;4.70;99.90;;;;;;6164057;23;20414;-82
2023/03/07 07:26:23;;;;;;;531.30;507.23;;;4.80;99.90;;;;;;6164665;23;20426;-82
2023/03/07 07:28:59;;;;;;;516.27;494.10;;;4.80;99.90;;;;;;6154666;23;20446;-82
2023/03/07 07:31:36;;;;;;;519.57;496.70;;;4.60;99.90;;;;;;6164023;23;20420;-82
2023/03/07 07:34:14;;;;;;;495.67;475.10;;;4.90;99.90;;;;;;6163983;23;20429;-82
2023/03/07 07:44:39;;;;;;;407.57;392.47;;;4.90;99.90;;;;;;6150945;23;20491;-81
2023/03/07 07:47:25;;;;;;;407.20;391.50;;;4.90;99.90;;;;;;6193630;23;20424;-81
2023/03/07 07:50:00;;;;;;;409.13;393.40;;;5.00;99.90;;;;;;6193532;23;20444;-82
2023/03/07 07:52:31;;;;;;;369.20;355.40;;;5.00;99.90;;;;;;6193619;23;20443;-82
2023/03/07 07:54:58;;;;;;;358.67;345.27;;;4.90;99.90;;;;;;6193568;23;20435;-81
2023/03/07 07:57:43;;;;;;;356.60;343.40;;;4.90;99.90;;;;;;6193989;23;20936;-82
2023/03/07 08:00:20;;;;;;;340.37;327.97;;;4.90;99.90;;;;;;6193683;23;20448;-81
2023/03/07 08:13:05;;;;;;;380.13;366.03;;;5.00;99.90;;;;;;6110679;23;20500;-81
2023/03/07 08:15:44;;;;;;;374.03;360.00;;;5.10;99.90;;;;;;6129866;23;20449;-80
2023/03/07 08:23:41;;;;;;;267.30;257.53;;;5.10;99.90;;;;;;6121744;23;20465;-80
2023/03/07 08:31:36;;;;;;;203.10;195.70;;;5.20;99.90;;;;;;6124773;23;20305;-82
2023/03/07 08:34:05;;;;;;;202.00;194.40;;;5.10;99.90;;;;;;6113737;23;20438;-83
2023/03/07 15:10:26;;;;;;;743.03;684.50;;;1.50;99.90;;;;;;6169396;23;20447;-95
2023/03/07 15:13:31;;;;;;;744.33;685.80;;;1.50;99.90;;;;;;6220432;23;20455;-95
2023/03/07 15:30:25;;;;;;;738.90;676.97;;;1.60;99.90;;;;;;6121488;23;20422;-94
2023/03/07 15:33:04;;;;;;;742.20;679.47;;;1.50;99.90;;;;;;6161026;23;20429;-94
2023/03/07 15:36:01;;;;;;;750.40;687.03;;;1.40;99.90;;;;;;6160418;23;20446;-94
2023/03/07 15:38:37;;;;;;;743.00;679.80;;;1.40;99.90;;;;;;6159853;23;20482;-93
2023/03/07 15:41:32;;;;;;;749.50;685.50;;;1.60;99.90;;;;;;6161186;23;20410;-95
2023/03/07 15:44:30;;;;;;;753.80;689.40;;;1.40;99.90;;;;;;6161159;23;20434;-94
2023/03/07 15:47:24;;;;;;;757.63;692.83;;;1.30;99.90;;;;;;6161509;23;20399;-94
2023/03/07 15:50:03;;;;;;;769.37;703.60;;;1.40;99.90;;;;;;6162199;23;20417;-95
2023/03/07 15:52:36;;;;;;;767.97;701.23;;;1.30;99.90;;;;;;6161217;23;20427;-93
2023/03/07 15:55:16;;;;;;;773.37;705.57;;;1.50;99.90;;;;;;6162165;23;20383;-94
2023/03/07 15:57:53;;;;;;;777.20;710.20;;;1.30;99.90;;;;;;6161993;23;20403;-94
2023/03/07 16:00:27;;;;;;;786.33;718.67;;;1.30;99.90;;;;;;6162097;23;20465;-94
2023/03/07 16:03:20;;;;;;;781.13;713.57;;;1.20;99.90;;;;;;6162327;23;20421;-94
2023/03/07 16:05:48;;;;;;;785.87;716.97;;;1.20;99.90;;;;;;6162325;23;20415;-95
2023/03/07 16:08:20;;;;;;;790.83;722.13;;;1.20;99.90;;;;;;6161786;23;20442;-94
2023/03/07 16:16:00;;;;;;;782.83;713.07;;;1.10;99.90;;;;;;6145119;23;20434;-93
2023/03/07 16:18:30;;;;;;;788.07;718.23;;;1.20;99.90;;;;;;6151088;23;20414;-91
2023/03/07 16:21:00;;;;;;;785.80;715.30;;;1.20;99.90;;;;;;6161244;23;20419;-92
2023/03/07 16:23:30;;;;;;;798.07;726.80;;;1.20;99.90;;;;;;6161593;23;20426;-93
2023/03/07 16:25:58;;;;;;;790.57;719.57;;;1.30;99.90;;;;;;6162358;23;20430;-95
2023/03/07 16:28:29;;;;;;;792.10;721.33;;;1.00;99.90;;;;;;6161890;23;20418;-94
2023/03/07 16:31:03;;;;;;;788.80;717.10;;;1.20;99.90;;;;;;6161885;23;20427;-93
2023/03/07 16:33:32;;;;;;;781.07;709.57;;;1.10;99.90;;;;;;6161968;23;20427;-93
2023/03/07 16:36:00;;;;;;;792.63;720.47;;;1.60;99.90;;;;;;6162257;23;20395;-94
2023/03/07 16:41:27;;;;;;;792.00;719.13;;;1.20;99.90;;;;;;6134928;23;20453;-94
2023/03/07 16:54:23;;;;;;;813.83;740.47;;;1.00;99.90;;;;;;6124198;23;20453;-79
2023/03/07 16:56:54;;;;;;;808.33;735.23;;;1.00;99.90;;;;;;6100093;23;20410;-80
2023/03/07 16:59:34;;;;;;;800.10;725.97;;;1.10;99.90;;;;;;6123680;23;20473;-81
2023/03/07 17:02:02;;;;;;;806.10;731.40;;;1.10;99.90;;;;;;6121205;23;20415;-81
2023/03/07 17:04:34;;;;;;;807.37;733.37;;;1.10;99.90;;;;;;6123446;23;20430;-83
2023/03/07 17:12:20;;;;;;;828.47;753.07;;;1.00;99.90;;;;;;6125226;23;20478;-81
2023/03/07 17:15:08;;;;;;;;;;;;;;;;;;;;;
2023/03/07 17:17:37;;;;;;;834.47;758.77;;;1.10;99.90;;;;;;6134922;23;20746;-82
2023/03/07 17:20:32;;;;;;;834.90;758.90;;;1.20;99.90;;;;;;6123074;23;20402;-82
2023/03/07 17:23:06;;;;;;;844.67;766.20;;;1.20;99.90;;;;;;6133794;23;20403;-82
2023/03/07 17:25:40;;;;;;;852.37;774.17;;;1.10;99.90;;;;;;6152671;23;20437;-81
2023/03/07 17:28:41;;;;;;;841.53;763.73;;;1.00;99.90;;;;;;6163301;23;20424;-82
2023/03/07 17:36:22;;;;;;;847.63;769.37;;;1.20;99.90;;;;;;6134870;23;20445;-81
2023/03/07 17:38:59;;;;;;;834.77;755.97;;;1.20;99.90;;;;;;6123244;23;20410;-80
2023/03/07 17:41:40;;;;;;;825.80;747.73;;;1.20;99.90;;;;;;6122696;23;20395;-80
2023/03/07 17:44:18;;;;;;;843.47;764.30;;;1.10;99.90;;;;;;6135651;23;20401;-81
2023/03/07 18:13:23;;;;;;;826.97;750.03;;;1.20;99.90;;;;;;6142859;23;20461;-94
2023/03/07 18:49:37;;;;;;;828.00;749.90;;;0.90;99.90;;;;;;6122313;23;20446;-86
2023/03/07 19:00:10;;;;;;;849.40;768.40;;;1.20;99.90;;;;;;6143139;23;20277;-87
2023/03/07 19:02:49;;;;;;;828.13;755.27;;;1.00;99.90;;;;;;6151965;23;20410;-87
2023/03/07 19:06:02;;;;;;;833.47;756.67;;;1.00;99.90;;;;;;6171681;23;20933;-91
2023/03/07 19:08:48;;;;;;;835.87;760.10;;;1.10;99.90;;;;;;6193688;23;20417;-89
2023/03/07 19:16:39;;;;;;;830.90;755.40;;;1.20;99.90;;;;;;6149004;23;20461;-89
2023/03/07 20:30:32;;;;;;;823.27;744.97;;;1.00;99.90;;;;;;6102061;23;20545;-90
2023/03/07 20:33:19;;;;;;;828.07;749.70;;;1.00;99.90;;;;;;6105312;23;20505;-90
2023/03/07 20:36:02;;;;;;;827.53;749.60;;;0.80;99.90;;;;;;6139229;23;20438;-88
